This is the latest recevied weather packets stored in our database for station/object CE3JSG-13. If no packets are shown the sender has not sent any weather packets the latest 10 day(s).
| Time | Temp. | Humidity | Pressure | Rain* | Wind** | Luminosity | Snow |
|---|---|---|---|---|---|---|---|
| 1777755916 | 28.33° C | 22% | 1012.1 hPa | - | - | - | - |
| 1777755076 | 28.89° C | 20% | 1011.5 hPa | - | - | - | - |
| 1777754236 | 28.89° C | 19% | 1011.8 hPa | - | - | - | - |
| 1777753818 | 28.89° C | 19% | 1012 hPa | - | - | - | - |
| 1777752976 | 29.44° C | 19% | 1011.9 hPa | - | - | - | - |
| 1777752555 | 29.44° C | 19% | 1012 hPa | - | - | - | - |
| 1777751716 | 29.44° C | 18% | 1011.7 hPa | - | - | - | - |
| 1777750456 | 29.44° C | 19% | 1011.3 hPa | - | - | - | - |
| 1777750036 | 29.44° C | 20% | 1010.9 hPa | - | - | - | - |
| 1777749616 | 28.89° C | 21% | 1011.3 hPa | - | - | - | - |
| 1777748776 | 28.89° C | 22% | 1012.2 hPa | - | - | - | - |
| 1777748355 | 28.89° C | 21% | 1011.3 hPa | - | - | - | - |
| 1777747516 | 28.89° C | 21% | 1011.9 hPa | - | - | - | - |
| 1777746256 | 28.89° C | 23% | 1012.4 hPa | - | - | - | - |
| 1777745836 | 29.44° C | 23% | 1011.3 hPa | - | - | - | - |
| 1777745416 | 29.44° C | 24% | 1011 hPa | - | - | - | - |
| 1777744576 | 27.78° C | 27% | 1012.8 hPa | - | - | - | - |
| 1777743316 | 26.67° C | 31% | 1012.1 hPa | - | - | - | - |
| 1777742056 | 26.67° C | 33% | 1011.1 hPa | - | - | - | - |
| 1777741636 | 25.56° C | 35% | 1011.9 hPa | - | - | - | - |
| 1777741215 | 25° C | 37% | 1012 hPa | - | - | - | - |
| 1777739956 | 23.89° C | 39% | 1013.3 hPa | - | - | - | - |
| 1777739115 | 23.33° C | 42% | 1013.3 hPa | - | - | - | - |
| 1777738696 | 22.78° C | 43% | 1015 hPa | - | - | - | - |
| 1777738276 | 22.78° C | 44% | 1014.6 hPa | - | - | - | - |
* Rain since midnight (hover to see other rain measurements)
** Current wind speed in m/s (hover to see current wind gust speed)